createdAt,value
2022-11-03T00:02:07.958Z,9.24
2022-11-03T00:04:34.793Z,9.25
2022-11-03T00:07:01.533Z,9.27
2022-11-03T00:09:28.119Z,9.25
2022-11-03T00:11:54.664Z,9.25
2022-11-03T00:14:21.138Z,9.28
2022-11-03T00:16:48.308Z,9.35
2022-11-03T00:19:16.432Z,9.41
2022-11-03T00:21:43.432Z,9.47
2022-11-03T00:24:10.235Z,9.53
2022-11-03T00:26:43.086Z,9.58
2022-11-03T00:29:12.191Z,9.55
2022-11-03T00:31:43.247Z,9.48
2022-11-03T00:34:09.869Z,9.46
2022-11-03T00:36:41.656Z,9.44
2022-11-03T00:39:08.952Z,9.44
2022-11-03T00:41:35.907Z,9.44
2022-11-03T00:44:02.590Z,9.43
2022-11-03T00:46:29.850Z,9.42
2022-11-03T00:48:56.461Z,9.42
2022-11-03T00:51:26.295Z,9.42
2022-11-03T00:53:58.572Z,9.42
2022-11-03T00:56:29.288Z,9.38
2022-11-03T00:59:02.075Z,9.35
2022-11-03T01:01:39.237Z,9.35
2022-11-03T01:04:21.862Z,9.36
2022-11-03T01:06:50.968Z,9.32
2022-11-03T01:09:26.112Z,9.32
2022-11-03T01:11:59.834Z,9.39
2022-11-03T01:14:32.589Z,9.45
2022-11-03T01:16:59.936Z,9.51
2022-11-03T01:19:27.395Z,9.60
2022-11-03T01:21:54.044Z,9.67
2022-11-03T01:24:21.016Z,9.73
2022-11-03T01:26:47.793Z,9.81
2022-11-03T01:29:14.466Z,9.86
2022-11-03T01:31:41.049Z,9.90
2022-11-03T01:34:14.082Z,9.90
2022-11-03T01:36:41.058Z,9.89
2022-11-03T01:39:11.225Z,9.86
2022-11-03T01:41:38.826Z,9.83
2022-11-03T01:44:27.152Z,9.81
2022-11-03T01:47:07.149Z,9.79
2022-11-03T01:49:50.845Z,9.75
2022-11-03T01:52:36.017Z,9.68
2022-11-03T01:55:08.296Z,9.63
2022-11-03T01:57:41.145Z,9.57
2022-11-03T02:00:08.861Z,9.53
2022-11-03T02:02:40.681Z,9.50
2022-11-03T02:05:10.119Z,9.48
2022-11-03T02:07:43.786Z,9.47
2022-11-03T02:10:10.761Z,9.46
2022-11-03T02:12:38.781Z,9.47
2022-11-03T02:15:08.735Z,9.50
2022-11-03T02:17:37.005Z,9.53
2022-11-03T02:20:10.603Z,9.57
2022-11-03T02:23:01.136Z,9.60
2022-11-03T02:25:39.721Z,9.64
2022-11-03T02:28:06.659Z,9.66
2022-11-03T02:30:42.361Z,9.66
2022-11-03T02:33:34.432Z,9.67
2022-11-03T02:36:27.933Z,9.69
2022-11-03T02:39:00.686Z,9.76
2022-11-03T02:41:28.986Z,9.80
2022-11-03T02:43:57.041Z,9.84
2022-11-03T02:46:26.093Z,9.85
2022-11-03T02:48:52.633Z,9.83
2022-11-03T02:51:19.261Z,9.79
2022-11-03T02:54:09.494Z,9.73
2022-11-03T02:56:45.897Z,9.68
2022-11-03T02:59:19.382Z,9.63
2022-11-03T03:01:53.042Z,9.57
2022-11-03T03:04:33.663Z,9.51
2022-11-03T03:07:04.839Z,9.45
2022-11-03T03:09:38.115Z,9.42
2022-11-03T03:12:08.138Z,9.40
2022-11-03T03:14:38.270Z,9.36
2022-11-03T03:17:13.987Z,9.32
2022-11-03T03:20:05.123Z,9.31
2022-11-03T03:22:44.010Z,9.28
2022-11-03T03:25:18.282Z,9.31
2022-11-03T03:27:50.683Z,9.36
2022-11-03T03:30:18.325Z,9.42
2022-11-03T03:32:48.338Z,9.46
2022-11-03T03:35:27.058Z,9.48
2022-11-03T03:38:05.411Z,9.50
2022-11-03T03:40:37.308Z,9.55
2022-11-03T03:43:08.002Z,9.59
2022-11-03T03:45:39.768Z,9.62
2022-11-03T03:48:06.993Z,9.65
2022-11-03T03:50:37.085Z,9.67
2022-11-03T03:53:05.978Z,9.68
2022-11-03T03:55:40.232Z,9.68
2022-11-03T03:58:10.067Z,9.67
2022-11-03T04:00:39.391Z,9.64
2022-11-03T04:03:12.215Z,9.62
2022-11-03T04:05:39.224Z,9.58
2022-11-03T04:08:06.055Z,9.54
2022-11-03T04:10:32.914Z,9.49
2022-11-03T04:13:13.361Z,9.44
2022-11-03T04:15:46.147Z,9.38
2022-11-03T04:18:24.551Z,9.28
2022-11-03T04:21:04.012Z,9.20
2022-11-03T04:23:31.071Z,9.18
2022-11-03T04:26:00.839Z,9.18
2022-11-03T04:28:28.713Z,9.17
2022-11-03T04:30:59.058Z,9.17
2022-11-03T04:33:26.389Z,9.14
2022-11-03T04:36:06.065Z,9.14
2022-11-03T04:38:39.771Z,9.15
2022-11-03T04:41:14.565Z,9.14
2022-11-03T04:43:43.660Z,9.13
2022-11-03T04:46:13.478Z,9.15
2022-11-03T04:48:40.860Z,9.17
2022-11-03T04:51:19.653Z,9.20
2022-11-03T04:53:50.181Z,9.20
2022-11-03T04:56:21.533Z,9.14
2022-11-03T04:58:49.221Z,9.13
2022-11-03T05:01:23.977Z,9.17
2022-11-03T05:03:53.842Z,9.19
2022-11-03T05:06:23.875Z,9.16
2022-11-03T05:09:05.337Z,9.14
2022-11-03T05:11:37.969Z,8.97
2022-11-03T05:14:27.326Z,8.98
2022-11-03T05:16:56.669Z,8.96
2022-11-03T05:19:48.462Z,8.91
2022-11-03T05:22:21.284Z,8.88
2022-11-03T05:24:55.569Z,8.92
2022-11-03T05:27:23.379Z,8.95
2022-11-03T05:29:55.127Z,8.97
2022-11-03T05:32:29.606Z,8.94
2022-11-03T05:34:56.675Z,8.96
2022-11-03T05:37:38.152Z,9.01
2022-11-03T05:40:19.741Z,9.06
2022-11-03T05:42:46.737Z,9.08
2022-11-03T05:45:25.066Z,9.05
2022-11-03T05:47:55.087Z,9.11
2022-11-03T05:50:24.920Z,9.19
2022-11-03T05:53:24.598Z,9.26
2022-11-03T05:55:52.022Z,9.35
2022-11-03T05:58:25.340Z,9.43
2022-11-03T06:00:52.704Z,9.47
2022-11-03T06:03:24.418Z,9.53
2022-11-03T06:05:52.898Z,9.62
2022-11-03T06:10:56.380Z,9.65
2022-11-03T06:13:34.414Z,9.72
2022-11-03T06:16:05.133Z,9.79
2022-11-03T06:18:35.722Z,9.86
2022-11-03T06:21:17.900Z,9.92
2022-11-03T06:23:44.586Z,9.94
2022-11-03T06:26:18.317Z,9.94
2022-11-03T06:28:45.052Z,9.94
2022-11-03T06:31:23.062Z,9.96
2022-11-03T06:33:51.850Z,9.97
2022-11-03T06:36:21.193Z,9.98
2022-11-03T06:38:53.628Z,9.99
2022-11-03T06:41:26.517Z,9.97
2022-11-03T06:43:53.869Z,9.93
2022-11-03T06:46:24.826Z,9.89
2022-11-03T06:48:54.636Z,9.88
2022-11-03T06:51:23.983Z,9.88
2022-11-03T06:53:52.540Z,9.92
2022-11-03T06:56:23.519Z,9.95
2022-11-03T06:58:53.172Z,10.03
2022-11-03T07:01:22.859Z,10.10
2022-11-03T07:03:55.661Z,10.17
2022-11-03T07:06:25.543Z,10.28
2022-11-03T07:08:56.063Z,10.37
2022-11-03T07:11:26.430Z,10.48
2022-11-03T07:13:56.854Z,10.59
2022-11-03T07:16:31.494Z,10.68
2022-11-03T07:19:06.346Z,10.77
2022-11-03T07:21:40.135Z,10.83
2022-11-03T07:24:26.658Z,10.84
2022-11-03T07:27:01.791Z,10.74
2022-11-03T07:29:30.558Z,10.70
2022-11-03T07:32:14.296Z,10.70
2022-11-03T07:34:41.454Z,10.64
2022-11-03T07:37:23.405Z,10.58
2022-11-03T07:39:58.080Z,10.54
2022-11-03T07:42:27.732Z,10.50
2022-11-03T07:45:04.171Z,10.45
2022-11-03T07:47:31.106Z,10.39
2022-11-03T07:53:42.547Z,10.32
2022-11-03T07:56:23.816Z,10.30
2022-11-03T08:03:00.414Z,10.29
2022-11-03T08:10:14.677Z,10.34
2022-11-03T08:10:41.403Z,10.30
2022-11-03T08:12:54.119Z,10.39
2022-11-03T08:15:58.288Z,10.44
2022-11-03T08:18:37.702Z,10.45
2022-11-03T08:21:05.176Z,10.44
2022-11-03T08:23:36.855Z,10.43
2022-11-03T08:26:03.961Z,10.41
2022-11-03T08:29:44.459Z,10.38
2022-11-03T08:32:10.909Z,10.35
2022-11-03T08:34:51.491Z,10.26
2022-11-03T08:37:25.941Z,10.22
2022-11-03T08:40:00.339Z,10.22
2022-11-03T08:42:34.498Z,10.22
2022-11-03T08:45:13.785Z,10.23
2022-11-03T08:47:44.058Z,10.25
2022-11-03T08:50:15.429Z,10.27
2022-11-03T08:53:13.993Z,10.29
2022-11-03T08:56:49.592Z,10.32
2022-11-03T08:59:43.554Z,10.34
2022-11-03T09:02:42.435Z,10.29
2022-11-03T09:05:32.918Z,10.27
2022-11-03T09:11:29.524Z,10.20
2022-11-03T09:14:00.785Z,10.28
2022-11-03T09:16:38.164Z,10.35
2022-11-03T09:19:44.983Z,10.45
2022-11-03T09:22:29.729Z,10.55
2022-11-03T09:29:17.947Z,10.84
2022-11-03T09:32:21.877Z,10.93
2022-11-03T09:34:58.853Z,10.87
2022-11-03T09:37:25.937Z,10.86
2022-11-03T09:40:13.374Z,10.82
2022-11-03T09:42:54.800Z,10.91
2022-11-03T09:46:29.443Z,10.99
2022-11-03T09:50:00.585Z,11.10
2022-11-03T09:56:28.853Z,11.29
2022-11-03T09:59:28.902Z,11.37
2022-11-03T10:02:34.437Z,11.47
2022-11-03T10:07:56.337Z,11.57
2022-11-03T10:10:33.082Z,11.57
2022-11-03T10:13:01.864Z,11.60
2022-11-03T10:15:28.757Z,11.62
2022-11-03T10:17:55.980Z,11.67
2022-11-03T10:20:23.106Z,11.73
2022-11-03T10:22:53.268Z,11.80
2022-11-03T10:25:45.048Z,11.90
2022-11-03T10:28:20.178Z,12.04
2022-11-03T10:31:39.700Z,12.13
2022-11-03T10:37:32.152Z,12.02
2022-11-03T10:39:58.991Z,12.01
2022-11-03T10:42:34.884Z,12.08
2022-11-03T10:45:19.711Z,12.29
2022-11-03T10:48:03.013Z,12.48
2022-11-03T10:50:30.332Z,12.59
2022-11-03T10:52:59.495Z,12.59
2022-11-03T10:55:28.033Z,12.69
2022-11-03T10:58:36.162Z,12.64
2022-11-03T11:01:26.073Z,12.28
2022-11-03T11:03:54.639Z,12.33
2022-11-03T11:06:25.845Z,12.47
2022-11-03T11:09:00.744Z,12.52
2022-11-03T11:11:30.132Z,12.53
2022-11-03T11:14:28.459Z,12.59
2022-11-03T11:16:58.389Z,12.65
2022-11-03T11:19:27.306Z,12.63
2022-11-03T11:22:03.901Z,12.68
2022-11-03T11:24:55.730Z,12.77
2022-11-03T11:27:59.352Z,12.82
2022-11-03T11:30:56.116Z,12.78
2022-11-03T11:33:29.668Z,12.68
2022-11-03T11:36:21.047Z,12.69
2022-11-03T11:39:16.911Z,12.71
2022-11-03T11:42:17.139Z,12.72
2022-11-03T11:44:57.089Z,12.74
2022-11-03T11:47:40.326Z,12.70
2022-11-03T11:50:28.737Z,12.65
2022-11-03T11:53:31.941Z,12.59
2022-11-03T11:56:04.240Z,12.59
2022-11-03T11:58:45.886Z,12.52
2022-11-03T12:01:23.397Z,12.50
2022-11-03T12:03:59.344Z,12.49
2022-11-03T12:06:36.381Z,12.51
2022-11-03T12:09:19.157Z,12.56
2022-11-03T12:11:56.359Z,12.40
2022-11-03T12:14:33.218Z,12.25
2022-11-03T12:17:31.182Z,12.30
2022-11-03T12:19:58.467Z,12.34
2022-11-03T12:22:48.004Z,12.38
2022-11-03T12:25:34.839Z,12.43
2022-11-03T12:28:01.618Z,12.48
2022-11-03T12:30:32.449Z,12.56
2022-11-03T12:33:06.832Z,12.60
2022-11-03T12:35:37.539Z,12.59
2022-11-03T12:38:07.641Z,12.64
2022-11-03T12:40:34.611Z,12.70
2022-11-03T12:43:10.702Z,12.74
2022-11-03T12:45:43.114Z,12.75
2022-11-03T12:48:10.114Z,12.73
2022-11-03T12:50:41.542Z,12.68
2022-11-03T12:53:08.811Z,12.62
2022-11-03T12:55:37.225Z,12.57
2022-11-03T12:58:06.968Z,12.51
2022-11-03T13:00:33.864Z,12.51
2022-11-03T13:03:00.410Z,12.49
2022-11-03T13:05:27.221Z,12.45
2022-11-03T13:07:54.079Z,12.41
2022-11-03T13:10:21.071Z,12.38
2022-11-03T13:12:51.009Z,12.36
2022-11-03T13:15:17.645Z,12.38
2022-11-03T13:18:12.751Z,12.43
2022-11-03T13:20:32.858Z,12.46
2022-11-03T13:22:59.647Z,12.47
2022-11-03T13:25:27.937Z,12.47
2022-11-03T13:27:54.862Z,12.45
2022-11-03T13:30:22.963Z,12.42
2022-11-03T13:32:49.789Z,12.42
2022-11-03T13:35:17.458Z,12.42
2022-11-03T13:37:44.091Z,12.42
2022-11-03T13:40:29.422Z,12.42
2022-11-03T13:42:58.643Z,12.46
2022-11-03T13:45:40.819Z,12.52
2022-11-03T13:50:59.509Z,12.62
2022-11-03T13:56:20.786Z,12.66
2022-11-03T14:07:07.020Z,12.57
2022-11-03T14:09:34.243Z,12.48
2022-11-03T14:12:18.326Z,12.39
2022-11-03T14:14:45.056Z,12.31
2022-11-03T14:17:11.900Z,12.21
2022-11-03T14:19:44.856Z,12.10
2022-11-03T14:22:12.723Z,11.98
2022-11-03T14:24:39.340Z,11.87
2022-11-03T14:27:05.849Z,11.75
2022-11-03T14:29:32.350Z,11.63
2022-11-03T14:31:59.110Z,11.52
2022-11-03T14:34:25.612Z,11.40
2022-11-03T14:36:52.320Z,11.27
2022-11-03T14:39:19.024Z,11.15
2022-11-03T14:42:00.061Z,11.04
2022-11-03T14:44:26.666Z,10.91
2022-11-03T14:46:54.537Z,10.81
2022-11-03T14:49:21.168Z,10.71
2022-11-03T14:51:47.940Z,10.61
2022-11-03T14:54:14.627Z,10.52
2022-11-03T14:56:41.421Z,10.43
2022-11-03T14:59:08.274Z,10.33
2022-11-03T15:01:36.734Z,10.25
2022-11-03T15:04:04.629Z,10.16
2022-11-03T15:06:32.580Z,10.08
2022-11-03T15:08:59.519Z,10.00
2022-11-03T15:11:26.611Z,9.92
2022-11-03T15:13:55.071Z,9.86
2022-11-03T15:16:22.531Z,9.80
2022-11-03T15:18:53.399Z,9.75
2022-11-03T15:21:20.269Z,9.71
2022-11-03T15:26:33.790Z,9.65
2022-11-03T15:29:05.142Z,9.63
2022-11-03T15:31:31.880Z,9.61
2022-11-03T15:33:59.987Z,9.60
2022-11-03T15:36:28.854Z,9.59
2022-11-03T15:38:56.378Z,9.56
2022-11-03T15:41:27.140Z,9.51
2022-11-03T15:44:06.557Z,9.45
2022-11-03T15:46:38.742Z,9.41
2022-11-03T15:49:10.513Z,9.36
2022-11-03T15:51:40.041Z,9.28
2022-11-03T15:54:16.101Z,9.21
2022-11-03T15:56:43.527Z,9.13
2022-11-03T15:59:14.749Z,9.06
2022-11-03T16:01:42.041Z,8.98
2022-11-03T16:04:08.971Z,8.94
2022-11-03T16:07:01.590Z,8.87
2022-11-03T16:10:01.878Z,8.81
2022-11-03T16:12:28.844Z,8.76
2022-11-03T16:14:55.789Z,8.71
2022-11-03T16:17:22.641Z,8.66
2022-11-03T16:19:50.814Z,8.61
2022-11-03T16:22:17.752Z,8.57
2022-11-03T16:24:47.968Z,8.52
2022-11-03T16:27:16.872Z,8.46
2022-11-03T16:34:13.984Z,8.36
2022-11-03T16:36:40.853Z,8.36
2022-11-03T16:39:07.521Z,8.36
2022-11-03T16:41:34.139Z,8.37
2022-11-03T16:44:00.716Z,8.38
2022-11-03T16:46:27.286Z,8.39
2022-11-03T16:48:54.783Z,8.42
2022-11-03T16:51:21.948Z,8.45
2022-11-03T16:53:48.604Z,8.47
2022-11-03T16:56:15.058Z,8.48
2022-11-03T16:58:43.698Z,8.51
2022-11-03T17:01:10.591Z,8.52
2022-11-03T17:03:37.216Z,8.49
2022-11-03T17:06:03.983Z,8.45
2022-11-03T17:11:35.099Z,8.34
2022-11-03T17:14:03.359Z,8.29
2022-11-03T17:16:29.876Z,8.24
2022-11-03T17:18:57.838Z,8.18
2022-11-03T17:21:26.056Z,8.15
2022-11-03T17:23:52.938Z,8.10
2022-11-03T17:26:24.663Z,8.05
2022-11-03T17:28:52.891Z,7.98
2022-11-03T17:31:19.897Z,7.93
2022-11-03T17:33:46.558Z,7.87
2022-11-03T17:36:13.059Z,7.82
2022-11-03T17:38:39.854Z,7.76
2022-11-03T17:41:11.654Z,7.70
2022-11-03T17:43:41.619Z,7.65
2022-11-03T17:46:08.057Z,7.62
2022-11-03T17:48:34.625Z,7.62
2022-11-03T17:51:08.833Z,7.63
2022-11-03T17:53:35.612Z,7.64
2022-11-03T17:56:28.454Z,7.69
2022-11-03T17:58:49.510Z,7.71
2022-11-03T18:01:23.438Z,7.72
2022-11-03T18:03:51.688Z,7.75
2022-11-03T18:06:20.644Z,7.77
2022-11-03T18:08:48.272Z,7.80
2022-11-03T18:11:43.818Z,7.83
2022-11-03T18:14:11.355Z,7.86
2022-11-03T18:16:37.961Z,7.87
2022-11-03T18:19:05.625Z,7.88
2022-11-03T18:21:32.322Z,7.86
2022-11-03T18:23:59.066Z,7.81
2022-11-03T18:26:26.872Z,7.74
2022-11-03T18:28:54.182Z,7.65
2022-11-03T18:31:32.524Z,7.57
2022-11-03T18:34:04.574Z,7.48
2022-11-03T18:36:33.615Z,7.39
2022-11-03T18:39:01.568Z,7.31
2022-11-03T18:41:35.420Z,7.23
2022-11-03T18:44:06.709Z,7.17
2022-11-03T18:46:33.336Z,7.10
2022-11-03T18:48:59.901Z,7.03
2022-11-03T18:51:26.616Z,6.99
2022-11-03T18:53:53.758Z,6.94
2022-11-03T18:56:20.445Z,6.89
2022-11-03T18:58:49.818Z,6.87
2022-11-03T19:01:25.979Z,6.85
2022-11-03T19:03:53.110Z,6.80
2022-11-03T19:06:25.495Z,6.77
2022-11-03T19:08:58.114Z,6.75
2022-11-03T19:11:25.861Z,6.74
2022-11-03T19:13:52.620Z,6.75
2022-11-03T19:16:23.026Z,6.77
2022-11-03T19:18:51.629Z,6.78
2022-11-03T19:21:22.770Z,6.79
2022-11-03T19:23:52.950Z,6.83
2022-11-03T19:26:33.017Z,6.84
2022-11-03T19:29:05.299Z,6.82
2022-11-03T19:31:42.122Z,6.80
2022-11-03T19:34:15.016Z,6.79
2022-11-03T19:36:43.290Z,6.77
2022-11-03T19:39:23.568Z,6.71
2022-11-03T19:42:09.655Z,6.64
2022-11-03T19:44:39.232Z,6.58
2022-11-03T19:47:06.427Z,6.50
2022-11-03T19:49:33.787Z,6.43
2022-11-03T19:52:00.325Z,6.34
2022-11-03T19:54:27.371Z,6.26
2022-11-03T19:56:53.944Z,6.19
2022-11-03T19:59:20.513Z,6.11
2022-11-03T20:01:49.599Z,6.03
2022-11-03T20:04:16.437Z,5.97
2022-11-03T20:06:42.964Z,5.92
2022-11-03T20:09:15.602Z,5.86
2022-11-03T20:11:42.293Z,5.81
2022-11-03T20:14:17.317Z,5.77
2022-11-03T20:16:44.153Z,5.76
2022-11-03T20:19:10.827Z,5.77
2022-11-03T20:21:39.078Z,5.81
2022-11-03T20:24:06.320Z,5.83
2022-11-03T20:26:33.917Z,5.88
2022-11-03T20:29:02.887Z,5.92
2022-11-03T20:31:29.475Z,5.96
2022-11-03T20:33:56.099Z,5.92
2022-11-03T20:36:22.678Z,5.93
2022-11-03T20:38:55.053Z,5.95
2022-11-03T20:41:21.571Z,5.95
2022-11-03T20:43:48.992Z,5.95
2022-11-03T20:46:32.919Z,5.92
2022-11-03T20:48:59.791Z,5.90
2022-11-03T20:51:30.916Z,5.85
2022-11-03T20:53:58.741Z,5.79
2022-11-03T20:56:27.735Z,5.76
2022-11-03T20:58:55.106Z,5.73
2022-11-03T21:01:29.968Z,5.67
2022-11-03T21:04:01.027Z,5.62
2022-11-03T21:06:29.867Z,5.54
2022-11-03T21:08:56.929Z,5.48
2022-11-03T21:11:27.105Z,5.42
2022-11-03T21:13:57.543Z,5.35
2022-11-03T21:16:36.180Z,5.22
2022-11-03T21:19:26.391Z,5.08
2022-11-03T21:21:52.958Z,4.99
2022-11-03T21:24:20.142Z,4.95
2022-11-03T21:26:49.082Z,4.96
2022-11-03T21:29:23.160Z,5.00
2022-11-03T21:31:59.580Z,5.06
2022-11-03T21:34:25.994Z,5.11
2022-11-03T21:36:54.782Z,5.12
2022-11-03T21:39:21.409Z,5.11
2022-11-03T21:41:58.521Z,5.11
2022-11-03T21:44:26.352Z,5.13
2022-11-03T21:46:55.357Z,5.15
2022-11-03T21:49:39.199Z,5.21
2022-11-03T21:52:05.691Z,5.24
2022-11-03T21:54:32.363Z,5.26
2022-11-03T21:56:58.970Z,5.27
2022-11-03T21:59:25.455Z,5.27
2022-11-03T22:01:54.423Z,5.24
2022-11-03T22:04:22.404Z,5.19
2022-11-03T22:06:50.730Z,5.16
2022-11-03T22:09:17.200Z,5.13
2022-11-03T22:11:43.816Z,5.09
2022-11-03T22:14:12.260Z,5.04
2022-11-03T22:16:40.151Z,4.97
2022-11-03T22:19:22.260Z,4.82
2022-11-03T22:22:02.349Z,4.69
2022-11-03T22:24:42.516Z,4.51
2022-11-03T22:27:09.409Z,4.38
2022-11-03T22:29:52.777Z,4.22
2022-11-03T22:32:19.269Z,4.16
2022-11-03T22:35:03.076Z,4.15
2022-11-03T22:40:13.416Z,4.08
2022-11-03T22:42:53.511Z,4.02
2022-11-03T22:45:33.732Z,4.04
2022-11-03T22:48:03.580Z,4.00
2022-11-03T22:50:30.656Z,4.09
2022-11-03T22:52:57.246Z,4.15
2022-11-03T22:55:23.680Z,4.15
2022-11-03T22:57:50.113Z,4.06
2022-11-03T23:00:17.776Z,3.98
2022-11-03T23:02:44.253Z,3.93
2022-11-03T23:05:10.817Z,3.92
2022-11-03T23:07:41.242Z,3.88
2022-11-03T23:10:12.802Z,3.86
2022-11-03T23:12:39.286Z,3.80
2022-11-03T23:15:25.356Z,3.77
2022-11-03T23:18:05.703Z,3.72
2022-11-03T23:20:45.698Z,3.64
2022-11-03T23:23:32.103Z,3.58
2022-11-03T23:25:58.595Z,3.51
2022-11-03T23:28:25.119Z,3.47
2022-11-03T23:30:51.667Z,3.43
2022-11-03T23:33:18.096Z,3.40
2022-11-03T23:35:44.616Z,3.37
2022-11-03T23:38:11.324Z,3.33
2022-11-03T23:40:40.387Z,3.32
2022-11-03T23:43:06.917Z,3.31
2022-11-03T23:45:47.268Z,3.29
2022-11-03T23:48:27.389Z,3.28
2022-11-03T23:50:54.092Z,3.25
2022-11-03T23:53:20.605Z,3.29
2022-11-03T23:55:57.888Z,3.42
2022-11-03T23:58:24.454Z,3.41
